Weather reports worldwide

Advertisment
Briancon, France (7593): temperature & dewpoint: 20.05.2019 02:00:00 - 26.05.2019 02:00:00 (CEST)Briancon, France (7593): wind speed: 20.05.2019 02:00:00 - 26.05.2019 02:00:00 (CEST)Briancon, France (7593): wind direction: 20.05.2019 02:00:00 - 26.05.2019 02:00:00 (CEST)Briancon, France (7593): precipitation: 20.05.2019 02:00:00 - 26.05.2019 02:00:00 (CEST)
Date & Time tt [°C] td [°C] ff [km/h] ff [kn] dd rr [mm]
26.05.2019 02:00:00 7,1 5,9 2 1 ENE -
26.05.2019 01:00:00 7,8 7,2 3 2 SE 0,0
26.05.2019 00:00:00 8,2 7,1 0 0 N 0,0
25.05.2019 23:00:00 8,5 7,6 2 1 E 0,0
25.05.2019 22:00:00 9,1 8,0 5 3 ENE 0,0
25.05.2019 21:00:00 9,6 8,5 3 2 SW 0,0
25.05.2019 20:00:00 10,8 9,2 8 4 SW 0,0
25.05.2019 19:00:00 10,6 8,2 6 4 ENE 1,0
25.05.2019 18:00:00 11,0 9,4 4 2 NNW 0,4
25.05.2019 17:00:00 11,3 9,6 4 2 ESE 1,2
25.05.2019 16:00:00 14,7 4,9 21 11 NE 0,0
25.05.2019 15:00:00 19,4 8,1 6 3 W 0,0
25.05.2019 14:00:00 16,5 6,0 13 7 NNE 0,0
25.05.2019 13:00:00 17,0 5,0 12 6 ENE 0,0
25.05.2019 12:00:00 15,5 7,0 6 4 NE 0,0
25.05.2019 11:00:00 13,8 8,4 3 2 W 0,0
25.05.2019 10:00:00 12,7 8,4 3 2 E 0,0
25.05.2019 09:00:00 10,5 8,8 2 1 NNW 0,0
25.05.2019 08:00:00 8,8 8,0 0 0 N 0,0
25.05.2019 07:00:00 8,0 7,4 0 0 N 0,0
25.05.2019 06:00:00 7,7 7,1 0 0 N 0,0
25.05.2019 05:00:00 7,7 7,1 3 2 S 0,0
25.05.2019 04:00:00 7,8 6,9 6 3 ENE 0,0
25.05.2019 03:00:00 8,2 7,4 4 2 NE 0,0
25.05.2019 02:00:00 8,3 7,5 4 2 E 0,0
25.05.2019 01:00:00 9,1 8,3 4 2 NE 0,0
25.05.2019 00:00:00 9,1 8,5 5 3 SW 0,8
24.05.2019 23:00:00 9,2 7,8 8 4 SSW 2,8
24.05.2019 22:00:00 11,8 9,2 3 2 SSE 0,4
24.05.2019 21:00:00 14,7 6,3 10 5 NE 0,0
24.05.2019 20:00:00 15,4 5,6 15 8 NE 0,0
24.05.2019 19:00:00 16,2 5,5 12 7 NE 0,0
24.05.2019 18:00:00 17,2 5,2 19 11 ENE 0,0
24.05.2019 17:00:00 18,6 5,8 23 12 E 0,0
24.05.2019 16:00:00 22,2 1,8 18 10 WSW 0,0
24.05.2019 15:00:00 21,0 3,7 8 4 NW 0,0
24.05.2019 14:00:00 20,6 5,8 20 11 WSW 0,0
24.05.2019 13:00:00 19,7 5,3 11 6 SW 0,0
24.05.2019 12:00:00 19,0 5,4 8 5 WSW 0,0
24.05.2019 11:00:00 17,6 6,5 4 2 S 0,0
24.05.2019 10:00:00 14,7 7,0 4 2 W 0,0
24.05.2019 09:00:00 11,8 4,7 0 0 N 0,0
24.05.2019 08:00:00 9,2 5,0 0 0 N 0,0
24.05.2019 07:00:00 7,5 4,6 3 2 SSE 0,0
24.05.2019 06:00:00 7,0 3,8 2 1 SSE 0,0
24.05.2019 05:00:00 7,1 3,9 0 0 N 0,0
24.05.2019 04:00:00 8,3 4,3 4 2 ENE 0,0
24.05.2019 03:00:00 8,5 4,5 4 2 ENE 0,0
24.05.2019 02:00:00 9,5 4,5 2 1 E 0,0
24.05.2019 01:00:00 11,1 5,2 2 1 SE 0,0
24.05.2019 00:00:00 11,9 4,6 2 1 SSE 0,0
23.05.2019 23:00:00 12,6 4,5 3 2 E 0,0
23.05.2019 22:00:00 14,9 4,6 10 6 NE 0,0
23.05.2019 21:00:00 16,2 3,3 10 5 NE 0,0
23.05.2019 20:00:00 18,5 2,7 6 3 NNW 0,0
23.05.2019 19:00:00 20,7 5,9 11 6 WSW 0,0
23.05.2019 18:00:00 21,5 4,1 14 7 WSW 0,0
23.05.2019 17:00:00 21,7 3,4 15 8 WSW 0,0
23.05.2019 16:00:00 21,3 2,0 11 6 SW 0,0
23.05.2019 15:00:00 21,0 1,8 6 4 WSW 0,0
23.05.2019 14:00:00 20,4 2,2 9 5 WSW 0,0
23.05.2019 13:00:00 19,1 1,6 6 3 SSW 0,0
23.05.2019 12:00:00 18,0 1,5 5 3 SW 0,0
23.05.2019 11:00:00 16,6 2,6 3 1 S 0,0
23.05.2019 10:00:00 14,6 2,8 2 1 S 0,0
23.05.2019 09:00:00 10,7 2,3 2 1 SSW 0,0
23.05.2019 08:00:00 8,1 1,2 2 1 WNW 0,0
23.05.2019 07:00:00 4,2 0,5 0 0 N 0,0
23.05.2019 06:00:00 4,4 0,2 4 2 E 0,0
23.05.2019 05:00:00 4,9 0,5 0 0 N 0,0
23.05.2019 04:00:00 5,7 0,6 5 3 E 0,0
23.05.2019 03:00:00 6,0 0,7 2 1 SE 0,0
23.05.2019 02:00:00 7,4 1,0 2 1 SE 0,0
23.05.2019 01:00:00 9,2 1,1 5 3 SSE 0,0
23.05.2019 00:00:00 10,9 0,6 11 6 E 0,0
22.05.2019 23:00:00 12,3 1,3 14 8 E 0,0
22.05.2019 22:00:00 13,3 1,3 11 6 NE 0,0
22.05.2019 21:00:00 14,3 1,5 9 5 NNE 0,0
22.05.2019 20:00:00 15,3 1,8 11 6 NNE 0,0
22.05.2019 19:00:00 16,1 1,0 10 5 NNE 0,0
22.05.2019 18:00:00 16,9 0,9 16 8 NNE 0,0
22.05.2019 17:00:00 18,9 1,4 13 7 N 0,0
22.05.2019 16:00:00 19,5 0,5 10 6 N 0,0
22.05.2019 15:00:00 19,9 1,3 9 5 NNW 0,0
22.05.2019 14:00:00 19,6 -0,4 9 5 N 0,0
22.05.2019 13:00:00 18,8 -1,1 9 5 N 0,0
22.05.2019 12:00:00 17,8 3,6 8 4 S 0,0
22.05.2019 11:00:00 16,7 3,7 5 3 WSW 0,0
22.05.2019 10:00:00 14,7 1,2 5 3 E 0,0
22.05.2019 09:00:00 11,7 3,5 2 1 SW 0,0
22.05.2019 08:00:00 9,9 2,7 6 3 E 0,0
22.05.2019 07:00:00 6,7 1,4 3 2 ENE 0,0
22.05.2019 06:00:00 6,4 1,1 5 3 SSE 0,0
22.05.2019 05:00:00 8,0 1,2 9 5 E 0,0
22.05.2019 04:00:00 7,8 1,4 12 6 ENE 0,0
22.05.2019 03:00:00 8,7 1,4 6 3 E 0,0
22.05.2019 02:00:00 9,3 1,7 9 5 E 0,0
22.05.2019 01:00:00 10,5 1,8 11 6 E 0,0
22.05.2019 00:00:00 11,4 1,3 13 7 E 0,0
21.05.2019 23:00:00 11,6 1,5 7 4 ENE 0,0
21.05.2019 22:00:00 11,9 1,8 7 4 NE 0,0
21.05.2019 21:00:00 12,7 1,1 9 5 N 0,0
21.05.2019 20:00:00 13,1 1,4 11 6 NNE 0,0
21.05.2019 19:00:00 15,2 1,0 10 5 NNW 0,0
21.05.2019 18:00:00 16,1 2,1 10 5 NNW 0,0
21.05.2019 17:00:00 16,3 1,6 11 6 NNW 0,0
21.05.2019 16:00:00 16,3 2,7 11 6 NW 0,0
21.05.2019 15:00:00 15,9 1,9 14 7 N 0,0
21.05.2019 14:00:00 15,9 2,7 10 6 NW 0,0
21.05.2019 13:00:00 16,0 1,7 9 5 N 0,0
21.05.2019 12:00:00 15,2 1,3 8 5 NW 0,0
21.05.2019 11:00:00 14,5 1,0 8 5 NNW 0,0
21.05.2019 10:00:00 14,1 2,3 6 3 N 0,0
21.05.2019 09:00:00 12,5 1,2 8 5 SSW 0,0
21.05.2019 08:00:00 8,6 2,8 3 2 SW 0,0
21.05.2019 07:00:00 4,8 1,3 3 1 SW 0,0
21.05.2019 06:00:00 5,1 0,8 5 3 SE 0,0
21.05.2019 05:00:00 6,0 1,3 4 2 ENE 0,0
21.05.2019 04:00:00 5,9 2,0 9 5 SSE 0,0
21.05.2019 03:00:00 6,7 2,2 11 6 E 0,0
21.05.2019 02:00:00 5,5 2,1 4 2 S 0,0
21.05.2019 01:00:00 5,9 2,5 2 1 ENE 0,0
21.05.2019 00:00:00 6,7 2,6 4 2 N 0,0
20.05.2019 23:00:00 7,5 2,6 4 2 SSE 0,0
20.05.2019 22:00:00 7,8 2,7 4 2 ESE 0,0
20.05.2019 21:00:00 10,3 2,6 4 2 S 0,0
20.05.2019 20:00:00 12,3 1,6 6 3 NNW 0,0
20.05.2019 19:00:00 13,2 1,8 9 5 NNE 0,0
20.05.2019 18:00:00 14,2 2,7 10 5 N 0,0
20.05.2019 17:00:00 13,5 2,1 7 4 NNW 0,0
20.05.2019 16:00:00 14,0 1,6 9 5 NNW 0,0
20.05.2019 15:00:00 13,4 2,6 8 4 NNW 0,0
20.05.2019 14:00:00 14,3 3,4 10 5 WNW 0,0
20.05.2019 13:00:00 13,7 3,2 10 6 WNW 0,0
20.05.2019 12:00:00 12,8 5,7 10 5 WSW 0,0
20.05.2019 11:00:00 10,3 7,5 6 3 WSW 0,0
20.05.2019 10:00:00 8,9 7,3 3 2 WNW 0,0
20.05.2019 09:00:00 7,2 6,1 3 2 S 0,0
20.05.2019 08:00:00 6,3 5,9 3 1 WNW 0,0
20.05.2019 07:00:00 5,7 5,3 2 1 S 0,2
20.05.2019 06:00:00 5,5 5,1 0 0 N 0,0
20.05.2019 05:00:00 5,4 5,0 0 0 N 0,0
20.05.2019 04:00:00 5,6 5,2 2 1 E 0,2
20.05.2019 03:00:00 6,0 5,6 0 0 N 0,2
20.05.2019 02:00:00 6,1 5,7 0 0 N 0,8

tt = temperature
td = dewpoint
ff = wind speed
dd = wind direction
rr = precipitation

Next stations